sensor_id;sensor_type;location;lat;lon;timestamp;temperature;humidity
20858;DHT22;10589;53.636;10.012;2024-01-30T04:46:22;2.90;99.90
20858;DHT22;10589;53.636;10.012;2024-01-30T04:48:49;3.00;99.90
20858;DHT22;10589;53.636;10.012;2024-01-30T04:51:15;3.00;99.90
20858;DHT22;10589;53.636;10.012;2024-01-30T04:53:40;3.10;99.90
20858;DHT22;10589;53.636;10.012;2024-01-30T04:56:06;3.10;99.90
20858;DHT22;10589;53.636;10.012;2024-01-30T04:58:32;3.10;99.90
20858;DHT22;10589;53.636;10.012;2024-01-30T05:00:57;3.20;99.90
20858;DHT22;10589;53.636;10.012;2024-01-30T05:03:23;3.20;99.90
20858;DHT22;10589;53.636;10.012;2024-01-30T05:05:49;3.20;99.90
20858;DHT22;10589;53.636;10.012;2024-01-30T05:08:15;3.20;99.90
20858;DHT22;10589;53.636;10.012;2024-01-30T05:10:40;3.10;99.90
20858;DHT22;10589;53.636;10.012;2024-01-30T05:13:07;3.00;99.90
20858;DHT22;10589;53.636;10.012;2024-01-30T05:15:33;2.90;99.90
20858;DHT22;10589;53.636;10.012;2024-01-30T05:17:58;2.80;99.90
20858;DHT22;10589;53.636;10.012;2024-01-30T05:20:24;2.80;99.90
20858;DHT22;10589;53.636;10.012;2024-01-30T05:22:53;2.80;99.90
20858;DHT22;10589;53.636;10.012;2024-01-30T05:25:19;2.80;99.90
20858;DHT22;10589;53.636;10.012;2024-01-30T05:27:44;2.80;99.90
20858;DHT22;10589;53.636;10.012;2024-01-30T05:30:10;3.10;99.90
20858;DHT22;10589;53.636;10.012;2024-01-30T05:32:36;3.10;99.90
20858;DHT22;10589;53.636;10.012;2024-01-30T05:35:02;3.10;99.90
20858;DHT22;10589;53.636;10.012;2024-01-30T05:37:27;3.20;99.90
20858;DHT22;10589;53.636;10.012;2024-01-30T05:39:53;3.20;99.90
20858;DHT22;10589;53.636;10.012;2024-01-30T05:42:19;3.10;99.90
20858;DHT22;10589;53.636;10.012;2024-01-30T05:44:44;3.10;99.90
20858;DHT22;10589;53.636;10.012;2024-01-30T05:47:10;3.10;99.90
20858;DHT22;10589;53.636;10.012;2024-01-30T05:49:35;3.20;99.90
20858;DHT22;10589;53.636;10.012;2024-01-30T05:52:03;3.10;99.90
20858;DHT22;10589;53.636;10.012;2024-01-30T05:54:29;3.00;99.90
20858;DHT22;10589;53.636;10.012;2024-01-30T05:56:54;3.00;99.90
20858;DHT22;10589;53.636;10.012;2024-01-30T05:59:20;3.10;99.90
20858;DHT22;10589;53.636;10.012;2024-01-30T06:01:48;3.30;99.90
20858;DHT22;10589;53.636;10.012;2024-01-30T06:04:14;3.30;99.90
20858;DHT22;10589;53.636;10.012;2024-01-30T06:06:41;3.30;99.90
20858;DHT22;10589;53.636;10.012;2024-01-30T06:09:06;3.40;99.90
20858;DHT22;10589;53.636;10.012;2024-01-30T06:11:34;3.50;99.90
20858;DHT22;10589;53.636;10.012;2024-01-30T06:14:00;3.60;99.90
20858;DHT22;10589;53.636;10.012;2024-01-30T06:16:26;3.60;99.90
20858;DHT22;10589;53.636;10.012;2024-01-30T06:18:55;3.60;99.90
20858;DHT22;10589;53.636;10.012;2024-01-30T06:21:21;3.60;99.90
20858;DHT22;10589;53.636;10.012;2024-01-30T06:23:46;3.50;99.90
20858;DHT22;10589;53.636;10.012;2024-01-30T06:26:12;3.60;99.90
20858;DHT22;10589;53.636;10.012;2024-01-30T06:28:38;3.70;99.90
20858;DHT22;10589;53.636;10.012;2024-01-30T06:31:03;3.70;99.90
20858;DHT22;10589;53.636;10.012;2024-01-30T06:33:29;3.70;99.90
20858;DHT22;10589;53.636;10.012;2024-01-30T06:35:55;3.70;99.90
20858;DHT22;10589;53.636;10.012;2024-01-30T06:38:20;3.70;99.90
20858;DHT22;10589;53.636;10.012;2024-01-30T06:40:46;3.70;99.90
20858;DHT22;10589;53.636;10.012;2024-01-30T06:43:11;3.70;99.90
20858;DHT22;10589;53.636;10.012;2024-01-30T06:45:37;3.70;99.90
20858;DHT22;10589;53.636;10.012;2024-01-30T06:48:03;3.70;99.90
20858;DHT22;10589;53.636;10.012;2024-01-30T06:50:28;3.60;99.90
20858;DHT22;10589;53.636;10.012;2024-01-30T06:52:54;3.60;99.90
20858;DHT22;10589;53.636;10.012;2024-01-30T06:55:20;3.50;99.90
20858;DHT22;10589;53.636;10.012;2024-01-30T06:57:45;3.60;99.90
20858;DHT22;10589;53.636;10.012;2024-01-30T07:00:11;3.50;99.90
20858;DHT22;10589;53.636;10.012;2024-01-30T07:02:37;3.50;99.90
20858;DHT22;10589;53.636;10.012;2024-01-30T07:05:03;3.40;99.90
20858;DHT22;10589;53.636;10.012;2024-01-30T07:07:29;3.30;99.90
20858;DHT22;10589;53.636;10.012;2024-01-30T07:09:54;3.20;99.90
20858;DHT22;10589;53.636;10.012;2024-01-30T07:12:22;3.10;99.90
20858;DHT22;10589;53.636;10.012;2024-01-30T07:14:50;3.10;99.90
20858;DHT22;10589;53.636;10.012;2024-01-30T07:17:15;3.00;99.90
20858;DHT22;10589;53.636;10.012;2024-01-30T07:19:41;3.00;99.90
20858;DHT22;10589;53.636;10.012;2024-01-30T07:22:07;3.10;99.90
20858;DHT22;10589;53.636;10.012;2024-01-30T07:24:33;3.10;99.90
20858;DHT22;10589;53.636;10.012;2024-01-30T07:26:59;3.00;99.90
20858;DHT22;10589;53.636;10.012;2024-01-30T07:29:24;3.10;99.90
20858;DHT22;10589;53.636;10.012;2024-01-30T07:31:50;3.00;99.90
20858;DHT22;10589;53.636;10.012;2024-01-30T07:34:15;3.00;99.90
20858;DHT22;10589;53.636;10.012;2024-01-30T07:36:41;3.00;99.90
20858;DHT22;10589;53.636;10.012;2024-01-30T07:39:07;3.10;99.90
20858;DHT22;10589;53.636;10.012;2024-01-30T07:41:33;3.30;99.90
20858;DHT22;10589;53.636;10.012;2024-01-30T07:43:58;3.40;99.90
20858;DHT22;10589;53.636;10.012;2024-01-30T07:46:24;3.50;99.90
20858;DHT22;10589;53.636;10.012;2024-01-30T07:48:51;3.70;99.90
20858;DHT22;10589;53.636;10.012;2024-01-30T07:51:16;3.70;99.90
20858;DHT22;10589;53.636;10.012;2024-01-30T07:53:42;3.80;99.90
20858;DHT22;10589;53.636;10.012;2024-01-30T07:56:08;3.80;99.90
20858;DHT22;10589;53.636;10.012;2024-01-30T07:58:33;3.90;99.90
20858;DHT22;10589;53.636;10.012;2024-01-30T08:00:59;4.00;99.90
20858;DHT22;10589;53.636;10.012;2024-01-30T08:03:25;4.00;99.90
20858;DHT22;10589;53.636;10.012;2024-01-30T08:05:51;4.00;99.90
20858;DHT22;10589;53.636;10.012;2024-01-30T08:08:17;4.10;99.90
20858;DHT22;10589;53.636;10.012;2024-01-30T08:10:42;4.20;99.90
20858;DHT22;10589;53.636;10.012;2024-01-30T08:13:08;4.30;99.90
20858;DHT22;10589;53.636;10.012;2024-01-30T08:15:34;4.30;99.90
20858;DHT22;10589;53.636;10.012;2024-01-30T08:18:00;4.40;99.90
20858;DHT22;10589;53.636;10.012;2024-01-30T08:20:26;4.50;99.90
20858;DHT22;10589;53.636;10.012;2024-01-30T08:22:52;4.60;99.90
20858;DHT22;10589;53.636;10.012;2024-01-30T08:25:18;4.60;99.90
20858;DHT22;10589;53.636;10.012;2024-01-30T08:27:44;4.60;99.90
20858;DHT22;10589;53.636;10.012;2024-01-30T08:30:10;4.60;99.90
20858;DHT22;10589;53.636;10.012;2024-01-30T08:32:36;4.60;99.90
20858;DHT22;10589;53.636;10.012;2024-01-30T08:35:01;4.60;99.90
20858;DHT22;10589;53.636;10.012;2024-01-30T08:37:30;4.70;99.90
20858;DHT22;10589;53.636;10.012;2024-01-30T08:39:56;4.70;99.90
20858;DHT22;10589;53.636;10.012;2024-01-30T08:42:22;4.80;99.90
20858;DHT22;10589;53.636;10.012;2024-01-30T08:44:48;5.00;99.90
20858;DHT22;10589;53.636;10.012;2024-01-30T08:47:16;5.00;99.90
20858;DHT22;10589;53.636;10.012;2024-01-30T08:49:43;5.10;99.90
20858;DHT22;10589;53.636;10.012;2024-01-30T08:52:10;5.20;99.90
20858;DHT22;10589;53.636;10.012;2024-01-30T08:54:36;5.30;99.90
20858;DHT22;10589;53.636;10.012;2024-01-30T08:57:01;5.30;99.90
20858;DHT22;10589;53.636;10.012;2024-01-30T08:59:27;5.40;99.90
20858;DHT22;10589;53.636;10.012;2024-01-30T09:01:53;5.40;99.90
20858;DHT22;10589;53.636;10.012;2024-01-30T09:04:20;5.50;99.90
20858;DHT22;10589;53.636;10.012;2024-01-30T09:06:47;5.50;99.90
20858;DHT22;10589;53.636;10.012;2024-01-30T09:09:12;5.60;99.90
20858;DHT22;10589;53.636;10.012;2024-01-30T09:11:38;5.70;99.90
20858;DHT22;10589;53.636;10.012;2024-01-30T09:14:03;5.70;99.90
20858;DHT22;10589;53.636;10.012;2024-01-30T09:16:29;5.80;99.90
20858;DHT22;10589;53.636;10.012;2024-01-30T09:18:55;5.90;99.90
20858;DHT22;10589;53.636;10.012;2024-01-30T09:21:20;5.90;99.90
20858;DHT22;10589;53.636;10.012;2024-01-30T09:23:46;6.00;99.90
20858;DHT22;10589;53.636;10.012;2024-01-30T09:26:11;6.00;99.90
20858;DHT22;10589;53.636;10.012;2024-01-30T09:28:38;6.10;99.90
20858;DHT22;10589;53.636;10.012;2024-01-30T09:31:04;6.10;99.90
20858;DHT22;10589;53.636;10.012;2024-01-30T09:33:29;6.20;99.90
20858;DHT22;10589;53.636;10.012;2024-01-30T09:35:55;6.30;99.90
20858;DHT22;10589;53.636;10.012;2024-01-30T09:38:20;6.40;99.90
20858;DHT22;10589;53.636;10.012;2024-01-30T09:40:51;6.40;99.90
20858;DHT22;10589;53.636;10.012;2024-01-30T09:43:23;6.50;99.90
20858;DHT22;10589;53.636;10.012;2024-01-30T09:45:50;6.50;99.90
20858;DHT22;10589;53.636;10.012;2024-01-30T09:48:16;6.50;99.90
20858;DHT22;10589;53.636;10.012;2024-01-30T09:50:41;6.50;99.90
20858;DHT22;10589;53.636;10.012;2024-01-30T09:53:11;6.60;99.90
20858;DHT22;10589;53.636;10.012;2024-01-30T09:55:38;6.60;99.90
20858;DHT22;10589;53.636;10.012;2024-01-30T09:58:08;6.70;99.90
20858;DHT22;10589;53.636;10.012;2024-01-30T10:00:33;6.70;99.90
20858;DHT22;10589;53.636;10.012;2024-01-30T10:02:59;6.80;99.90
20858;DHT22;10589;53.636;10.012;2024-01-30T10:05:27;6.80;99.90
20858;DHT22;10589;53.636;10.012;2024-01-30T10:07:56;6.80;99.90
20858;DHT22;10589;53.636;10.012;2024-01-30T10:10:23;6.90;99.90
20858;DHT22;10589;53.636;10.012;2024-01-30T10:12:49;7.00;99.90
20858;DHT22;10589;53.636;10.012;2024-01-30T10:15:14;7.00;99.90
20858;DHT22;10589;53.636;10.012;2024-01-30T10:17:40;7.10;99.90
20858;DHT22;10589;53.636;10.012;2024-01-30T10:20:06;7.20;99.90
20858;DHT22;10589;53.636;10.012;2024-01-30T10:22:33;7.20;99.90
20858;DHT22;10589;53.636;10.012;2024-01-30T10:25:00;7.30;99.90
20858;DHT22;10589;53.636;10.012;2024-01-30T10:27:26;7.40;99.90
20858;DHT22;10589;53.636;10.012;2024-01-30T10:29:55;7.50;99.90
20858;DHT22;10589;53.636;10.012;2024-01-30T10:32:21;7.50;99.90
20858;DHT22;10589;53.636;10.012;2024-01-30T10:34:47;7.50;99.90
20858;DHT22;10589;53.636;10.012;2024-01-30T10:37:12;7.60;99.90
20858;DHT22;10589;53.636;10.012;2024-01-30T10:39:41;7.70;99.90
20858;DHT22;10589;53.636;10.012;2024-01-30T10:42:11;7.70;99.90
20858;DHT22;10589;53.636;10.012;2024-01-30T10:44:52;7.80;99.90
20858;DHT22;10589;53.636;10.012;2024-01-30T10:47:28;7.80;99.90
20858;DHT22;10589;53.636;10.012;2024-01-30T10:49:56;7.90;99.90
20858;DHT22;10589;53.636;10.012;2024-01-30T10:52:23;7.90;99.90
20858;DHT22;10589;53.636;10.012;2024-01-30T10:54:54;7.90;99.90
20858;DHT22;10589;53.636;10.012;2024-01-30T10:57:24;7.90;99.90
20858;DHT22;10589;53.636;10.012;2024-01-30T10:59:54;8.00;99.90
20858;DHT22;10589;53.636;10.012;2024-01-30T11:02:21;8.00;99.90
20858;DHT22;10589;53.636;10.012;2024-01-30T11:04:49;8.00;99.90
20858;DHT22;10589;53.636;10.012;2024-01-30T11:07:16;8.10;99.90
20858;DHT22;10589;53.636;10.012;2024-01-30T11:12:25;8.20;99.90
20858;DHT22;10589;53.636;10.012;2024-01-30T11:22:45;8.40;99.90
20858;DHT22;10589;53.636;10.012;2024-01-30T11:25:16;8.40;99.90
20858;DHT22;10589;53.636;10.012;2024-01-30T11:27:43;8.40;99.90
20858;DHT22;10589;53.636;10.012;2024-01-30T11:30:09;8.40;99.90
20858;DHT22;10589;53.636;10.012;2024-01-30T11:32:35;8.40;99.90
20858;DHT22;10589;53.636;10.012;2024-01-30T11:35:03;8.40;99.90
20858;DHT22;10589;53.636;10.012;2024-01-30T11:37:31;8.40;99.90
20858;DHT22;10589;53.636;10.012;2024-01-30T11:39:57;8.40;99.90
20858;DHT22;10589;53.636;10.012;2024-01-30T11:42:24;8.40;99.90
20858;DHT22;10589;53.636;10.012;2024-01-30T11:44:53;8.40;99.90
20858;DHT22;10589;53.636;10.012;2024-01-30T11:47:18;8.50;99.90
20858;DHT22;10589;53.636;10.012;2024-01-30T11:49:44;8.50;99.90
20858;DHT22;10589;53.636;10.012;2024-01-30T11:52:10;8.50;99.90
20858;DHT22;10589;53.636;10.012;2024-01-30T11:54:39;8.50;99.90
20858;DHT22;10589;53.636;10.012;2024-01-30T11:57:05;8.50;99.90
20858;DHT22;10589;53.636;10.012;2024-01-30T11:59:30;8.50;99.90
20858;DHT22;10589;53.636;10.012;2024-01-30T12:01:56;8.50;99.90
20858;DHT22;10589;53.636;10.012;2024-01-30T12:04:22;8.50;99.90
20858;DHT22;10589;53.636;10.012;2024-01-30T12:06:51;8.50;99.90
20858;DHT22;10589;53.636;10.012;2024-01-30T12:09:17;8.50;99.90
20858;DHT22;10589;53.636;10.012;2024-01-30T12:11:46;8.50;99.90
20858;DHT22;10589;53.636;10.012;2024-01-30T12:14:12;8.50;99.90
20858;DHT22;10589;53.636;10.012;2024-01-30T12:16:38;8.60;99.90
20858;DHT22;10589;53.636;10.012;2024-01-30T12:19:04;8.70;99.90
20858;DHT22;10589;53.636;10.012;2024-01-30T12:21:29;8.70;99.90
20858;DHT22;10589;53.636;10.012;2024-01-30T12:23:59;8.70;99.90
20858;DHT22;10589;53.636;10.012;2024-01-30T12:26:25;8.80;99.90
20858;DHT22;10589;53.636;10.012;2024-01-30T12:28:54;8.80;99.90
20858;DHT22;10589;53.636;10.012;2024-01-30T12:31:26;8.80;99.90
20858;DHT22;10589;53.636;10.012;2024-01-30T12:33:53;8.80;99.90
20858;DHT22;10589;53.636;10.012;2024-01-30T12:36:19;8.80;99.90
20858;DHT22;10589;53.636;10.012;2024-01-30T12:38:44;8.90;99.90
20858;DHT22;10589;53.636;10.012;2024-01-30T12:41:10;9.00;99.90
20858;DHT22;10589;53.636;10.012;2024-01-30T12:43:36;9.00;99.90
20858;DHT22;10589;53.636;10.012;2024-01-30T12:46:03;9.10;99.90
20858;DHT22;10589;53.636;10.012;2024-01-30T12:48:28;9.20;99.90
20858;DHT22;10589;53.636;10.012;2024-01-30T12:50:56;9.30;99.90
20858;DHT22;10589;53.636;10.012;2024-01-30T12:53:21;9.30;99.90
20858;DHT22;10589;53.636;10.012;2024-01-30T12:55:47;9.40;99.90
20858;DHT22;10589;53.636;10.012;2024-01-30T12:58:12;9.40;99.90
20858;DHT22;10589;53.636;10.012;2024-01-30T13:00:38;9.40;99.90
20858;DHT22;10589;53.636;10.012;2024-01-30T13:03:04;9.40;99.90
20858;DHT22;10589;53.636;10.012;2024-01-30T13:05:29;9.30;99.90
20858;DHT22;10589;53.636;10.012;2024-01-30T13:07:55;9.40;99.90
20858;DHT22;10589;53.636;10.012;2024-01-30T13:10:22;9.40;99.90
20858;DHT22;10589;53.636;10.012;2024-01-30T13:12:48;9.40;99.90
20858;DHT22;10589;53.636;10.012;2024-01-30T13:15:14;9.50;99.90
20858;DHT22;10589;53.636;10.012;2024-01-30T13:17:40;9.60;99.90
20858;DHT22;10589;53.636;10.012;2024-01-30T13:20:08;9.50;99.90
20858;DHT22;10589;53.636;10.012;2024-01-30T13:22:34;9.50;99.90
20858;DHT22;10589;53.636;10.012;2024-01-30T13:24:59;9.50;99.90
20858;DHT22;10589;53.636;10.012;2024-01-30T13:27:25;9.50;99.90
20858;DHT22;10589;53.636;10.012;2024-01-30T13:29:51;9.50;99.90
20858;DHT22;10589;53.636;10.012;2024-01-30T13:32:16;9.40;99.90
20858;DHT22;10589;53.636;10.012;2024-01-30T13:34:42;9.40;99.90
20858;DHT22;10589;53.636;10.012;2024-01-30T13:37:08;9.40;99.90
20858;DHT22;10589;53.636;10.012;2024-01-30T13:39:34;9.40;99.90
20858;DHT22;10589;53.636;10.012;2024-01-30T13:41:59;9.30;99.90
20858;DHT22;10589;53.636;10.012;2024-01-30T13:44:25;9.30;99.90
20858;DHT22;10589;53.636;10.012;2024-01-30T13:46:51;9.30;99.90
20858;DHT22;10589;53.636;10.012;2024-01-30T13:49:16;9.30;99.90
20858;DHT22;10589;53.636;10.012;2024-01-30T13:51:42;9.30;99.90
20858;DHT22;10589;53.636;10.012;2024-01-30T13:54:07;9.30;99.90
20858;DHT22;10589;53.636;10.012;2024-01-30T13:56:34;9.30;99.90
20858;DHT22;10589;53.636;10.012;2024-01-30T13:58:59;9.30;99.90
20858;DHT22;10589;53.636;10.012;2024-01-30T14:01:26;9.30;99.90
20858;DHT22;10589;53.636;10.012;2024-01-30T14:03:52;9.30;99.90
20858;DHT22;10589;53.636;10.012;2024-01-30T14:06:18;9.20;99.90
20858;DHT22;10589;53.636;10.012;2024-01-30T14:08:44;9.20;99.90
20858;DHT22;10589;53.636;10.012;2024-01-30T14:11:09;9.20;99.90
20858;DHT22;10589;53.636;10.012;2024-01-30T14:13:35;9.20;99.90
20858;DHT22;10589;53.636;10.012;2024-01-30T14:16:01;9.30;99.90
20858;DHT22;10589;53.636;10.012;2024-01-30T14:18:27;9.30;99.90
20858;DHT22;10589;53.636;10.012;2024-01-30T14:20:52;9.30;99.90
20858;DHT22;10589;53.636;10.012;2024-01-30T14:23:19;9.30;99.90
20858;DHT22;10589;53.636;10.012;2024-01-30T14:25:45;9.30;99.90
20858;DHT22;10589;53.636;10.012;2024-01-30T14:28:10;9.30;99.90
20858;DHT22;10589;53.636;10.012;2024-01-30T14:30:36;9.40;99.90
20858;DHT22;10589;53.636;10.012;2024-01-30T14:33:02;9.40;99.90
20858;DHT22;10589;53.636;10.012;2024-01-30T14:35:27;9.50;99.90
20858;DHT22;10589;53.636;10.012;2024-01-30T14:37:53;9.50;99.90
20858;DHT22;10589;53.636;10.012;2024-01-30T14:40:19;9.50;99.90
20858;DHT22;10589;53.636;10.012;2024-01-30T14:42:45;9.50;99.90
20858;DHT22;10589;53.636;10.012;2024-01-30T14:45:11;9.50;99.90
20858;DHT22;10589;53.636;10.012;2024-01-30T14:47:37;9.50;99.90
20858;DHT22;10589;53.636;10.012;2024-01-30T14:50:03;9.50;99.90
20858;DHT22;10589;53.636;10.012;2024-01-30T14:52:30;9.50;99.90
20858;DHT22;10589;53.636;10.012;2024-01-30T14:54:56;9.50;99.90
20858;DHT22;10589;53.636;10.012;2024-01-30T14:57:24;9.50;99.90
20858;DHT22;10589;53.636;10.012;2024-01-30T14:59:49;9.50;99.90
20858;DHT22;10589;53.636;10.012;2024-01-30T15:02:15;9.60;99.90
20858;DHT22;10589;53.636;10.012;2024-01-30T15:04:41;9.60;99.90
20858;DHT22;10589;53.636;10.012;2024-01-30T15:07:06;9.60;99.90
20858;DHT22;10589;53.636;10.012;2024-01-30T15:09:32;9.60;99.90
20858;DHT22;10589;53.636;10.012;2024-01-30T15:11:58;9.60;99.90
20858;DHT22;10589;53.636;10.012;2024-01-30T15:14:23;9.60;99.90
20858;DHT22;10589;53.636;10.012;2024-01-30T15:16:49;9.60;99.90
20858;DHT22;10589;53.636;10.012;2024-01-30T15:19:15;9.60;99.90
20858;DHT22;10589;53.636;10.012;2024-01-30T15:21:41;9.70;99.90
20858;DHT22;10589;53.636;10.012;2024-01-30T15:24:06;9.70;99.90
20858;DHT22;10589;53.636;10.012;2024-01-30T15:26:34;9.70;99.90
20858;DHT22;10589;53.636;10.012;2024-01-30T15:28:59;9.70;99.90
20858;DHT22;10589;53.636;10.012;2024-01-30T15:31:25;9.70;99.90
20858;DHT22;10589;53.636;10.012;2024-01-30T15:33:51;9.70;99.90
20858;DHT22;10589;53.636;10.012;2024-01-30T15:36:16;9.70;99.90
20858;DHT22;10589;53.636;10.012;2024-01-30T15:38:42;9.70;99.90
20858;DHT22;10589;53.636;10.012;2024-01-30T15:41:08;9.60;99.90
20858;DHT22;10589;53.636;10.012;2024-01-30T15:43:33;9.70;99.90
20858;DHT22;10589;53.636;10.012;2024-01-30T15:45:59;9.70;99.90
20858;DHT22;10589;53.636;10.012;2024-01-30T15:48:28;9.80;99.90
20858;DHT22;10589;53.636;10.012;2024-01-30T15:50:53;9.70;99.90
20858;DHT22;10589;53.636;10.012;2024-01-30T15:53:20;9.70;99.90
20858;DHT22;10589;53.636;10.012;2024-01-30T15:55:47;9.60;99.90
20858;DHT22;10589;53.636;10.012;2024-01-30T15:58:12;9.60;99.90
20858;DHT22;10589;53.636;10.012;2024-01-30T16:00:38;9.70;99.90
20858;DHT22;10589;53.636;10.012;2024-01-30T16:03:04;9.70;99.90
20858;DHT22;10589;53.636;10.012;2024-01-30T16:05:30;9.60;99.90
20858;DHT22;10589;53.636;10.012;2024-01-30T16:07:56;9.70;99.90
20858;DHT22;10589;53.636;10.012;2024-01-30T16:10:21;9.60;99.90
20858;DHT22;10589;53.636;10.012;2024-01-30T16:12:47;9.70;99.90
20858;DHT22;10589;53.636;10.012;2024-01-30T16:15:13;9.70;99.90
20858;DHT22;10589;53.636;10.012;2024-01-30T16:17:39;9.70;99.90
20858;DHT22;10589;53.636;10.012;2024-01-30T16:20:05;9.70;99.90
20858;DHT22;10589;53.636;10.012;2024-01-30T16:22:34;9.60;99.90
20858;DHT22;10589;53.636;10.012;2024-01-30T16:25:01;9.60;99.90
20858;DHT22;10589;53.636;10.012;2024-01-30T16:27:27;9.50;99.90
20858;DHT22;10589;53.636;10.012;2024-01-30T16:29:52;9.60;99.90
20858;DHT22;10589;53.636;10.012;2024-01-30T16:32:18;9.50;99.90
20858;DHT22;10589;53.636;10.012;2024-01-30T16:34:44;9.60;99.90
20858;DHT22;10589;53.636;10.012;2024-01-30T16:37:10;9.60;99.90
20858;DHT22;10589;53.636;10.012;2024-01-30T16:39:36;9.60;99.90
20858;DHT22;10589;53.636;10.012;2024-01-30T16:42:02;9.60;99.90
20858;DHT22;10589;53.636;10.012;2024-01-30T16:44:28;9.70;99.90
20858;DHT22;10589;53.636;10.012;2024-01-30T16:46:53;9.70;99.90
20858;DHT22;10589;53.636;10.012;2024-01-30T16:49:19;9.70;99.90
20858;DHT22;10589;53.636;10.012;2024-01-30T16:51:45;9.80;99.90
20858;DHT22;10589;53.636;10.012;2024-01-30T16:54:11;9.80;99.90
20858;DHT22;10589;53.636;10.012;2024-01-30T16:56:37;9.90;99.90
20858;DHT22;10589;53.636;10.012;2024-01-30T16:59:02;9.80;99.90
20858;DHT22;10589;53.636;10.012;2024-01-30T17:01:28;9.80;99.90
20858;DHT22;10589;53.636;10.012;2024-01-30T17:03:54;9.80;99.90
20858;DHT22;10589;53.636;10.012;2024-01-30T17:06:19;9.70;99.90
20858;DHT22;10589;53.636;10.012;2024-01-30T17:08:45;9.70;99.90
20858;DHT22;10589;53.636;10.012;2024-01-30T17:11:11;9.70;99.90
20858;DHT22;10589;53.636;10.012;2024-01-30T17:13:36;9.80;99.90
20858;DHT22;10589;53.636;10.012;2024-01-30T17:16:02;9.80;99.90
20858;DHT22;10589;53.636;10.012;2024-01-30T17:18:30;9.80;99.90
20858;DHT22;10589;53.636;10.012;2024-01-30T17:20:56;9.80;99.90
20858;DHT22;10589;53.636;10.012;2024-01-30T17:23:21;9.90;99.90
20858;DHT22;10589;53.636;10.012;2024-01-30T17:25:50;9.90;99.90
20858;DHT22;10589;53.636;10.012;2024-01-30T17:28:16;9.90;99.90
20858;DHT22;10589;53.636;10.012;2024-01-30T17:30:42;9.90;99.90
20858;DHT22;10589;53.636;10.012;2024-01-30T17:33:08;10.00;99.90
20858;DHT22;10589;53.636;10.012;2024-01-30T17:35:33;10.00;99.90
20858;DHT22;10589;53.636;10.012;2024-01-30T17:37:59;10.00;99.90
20858;DHT22;10589;53.636;10.012;2024-01-30T17:40:25;10.00;99.90
20858;DHT22;10589;53.636;10.012;2024-01-30T17:42:51;10.00;99.90
20858;DHT22;10589;53.636;10.012;2024-01-30T17:45:16;10.10;99.90
20858;DHT22;10589;53.636;10.012;2024-01-30T17:47:42;10.00;99.90
20858;DHT22;10589;53.636;10.012;2024-01-30T17:50:08;10.10;99.90
20858;DHT22;10589;53.636;10.012;2024-01-30T17:52:34;10.10;99.90
20858;DHT22;10589;53.636;10.012;2024-01-30T17:54:59;10.10;99.90
20858;DHT22;10589;53.636;10.012;2024-01-30T17:57:25;10.20;99.90
20858;DHT22;10589;53.636;10.012;2024-01-30T17:59:50;10.10;99.90
20858;DHT22;10589;53.636;10.012;2024-01-30T18:02:16;10.10;99.90
20858;DHT22;10589;53.636;10.012;2024-01-30T18:04:42;10.10;99.90
20858;DHT22;10589;53.636;10.012;2024-01-30T18:07:08;10.10;99.90
20858;DHT22;10589;53.636;10.012;2024-01-30T18:09:34;10.10;99.90
20858;DHT22;10589;53.636;10.012;2024-01-30T18:12:00;10.10;99.90
20858;DHT22;10589;53.636;10.012;2024-01-30T18:14:25;10.10;99.90
20858;DHT22;10589;53.636;10.012;2024-01-30T18:16:51;10.10;99.90
20858;DHT22;10589;53.636;10.012;2024-01-30T18:19:17;10.10;99.90
20858;DHT22;10589;53.636;10.012;2024-01-30T18:21:43;10.10;99.90
20858;DHT22;10589;53.636;10.012;2024-01-30T18:24:09;10.10;99.90
20858;DHT22;10589;53.636;10.012;2024-01-30T18:26:35;10.20;99.90
20858;DHT22;10589;53.636;10.012;2024-01-30T18:29:01;10.20;99.90
20858;DHT22;10589;53.636;10.012;2024-01-30T18:31:27;10.20;99.90
20858;DHT22;10589;53.636;10.012;2024-01-30T18:33:52;10.20;99.90
20858;DHT22;10589;53.636;10.012;2024-01-30T18:36:21;10.20;99.90
20858;DHT22;10589;53.636;10.012;2024-01-30T18:38:49;10.10;99.90
20858;DHT22;10589;53.636;10.012;2024-01-30T18:41:15;10.20;99.90
20858;DHT22;10589;53.636;10.012;2024-01-30T18:43:41;10.20;99.90
20858;DHT22;10589;53.636;10.012;2024-01-30T18:46:08;10.10;99.90
20858;DHT22;10589;53.636;10.012;2024-01-30T18:48:38;10.10;99.90
20858;DHT22;10589;53.636;10.012;2024-01-30T18:51:05;10.10;99.90
20858;DHT22;10589;53.636;10.012;2024-01-30T18:53:31;10.00;99.90
20858;DHT22;10589;53.636;10.012;2024-01-30T18:55:56;10.10;99.90
20858;DHT22;10589;53.636;10.012;2024-01-30T18:58:22;10.10;99.90
20858;DHT22;10589;53.636;10.012;2024-01-30T19:00:49;10.00;99.90
20858;DHT22;10589;53.636;10.012;2024-01-30T19:03:16;10.00;99.90
20858;DHT22;10589;53.636;10.012;2024-01-30T19:05:43;10.10;99.90
20858;DHT22;10589;53.636;10.012;2024-01-30T19:08:09;10.00;99.90
20858;DHT22;10589;53.636;10.012;2024-01-30T19:10:34;10.00;99.90
20858;DHT22;10589;53.636;10.012;2024-01-30T19:13:01;10.00;99.90
20858;DHT22;10589;53.636;10.012;2024-01-30T19:15:27;10.00;99.90
20858;DHT22;10589;53.636;10.012;2024-01-30T19:17:53;9.90;99.90
20858;DHT22;10589;53.636;10.012;2024-01-30T19:20:18;9.90;99.90
20858;DHT22;10589;53.636;10.012;2024-01-30T19:22:46;9.90;99.90
20858;DHT22;10589;53.636;10.012;2024-01-30T19:25:12;9.90;99.90
20858;DHT22;10589;53.636;10.012;2024-01-30T19:27:37;9.90;99.90
20858;DHT22;10589;53.636;10.012;2024-01-30T19:30:03;9.90;99.90
20858;DHT22;10589;53.636;10.012;2024-01-30T19:32:29;9.80;99.90
20858;DHT22;10589;53.636;10.012;2024-01-30T19:34:55;9.70;99.90
20858;DHT22;10589;53.636;10.012;2024-01-30T19:37:21;9.60;99.90
20858;DHT22;10589;53.636;10.012;2024-01-30T19:39:50;9.60;99.90
20858;DHT22;10589;53.636;10.012;2024-01-30T19:42:16;9.60;99.90
20858;DHT22;10589;53.636;10.012;2024-01-30T19:44:42;9.60;99.90
20858;DHT22;10589;53.636;10.012;2024-01-30T19:47:08;9.60;99.90
20858;DHT22;10589;53.636;10.012;2024-01-30T19:49:38;9.60;99.90
20858;DHT22;10589;53.636;10.012;2024-01-30T19:52:08;9.60;99.90
20858;DHT22;10589;53.636;10.012;2024-01-30T19:54:35;9.60;99.90
20858;DHT22;10589;53.636;10.012;2024-01-30T19:57:01;9.60;99.90
20858;DHT22;10589;53.636;10.012;2024-01-30T19:59:28;9.50;99.90
20858;DHT22;10589;53.636;10.012;2024-01-30T20:01:54;9.60;99.90
20858;DHT22;10589;53.636;10.012;2024-01-30T20:04:19;9.60;99.90
20858;DHT22;10589;53.636;10.012;2024-01-30T20:06:45;9.50;99.90
20858;DHT22;10589;53.636;10.012;2024-01-30T20:09:11;9.50;99.90
20858;DHT22;10589;53.636;10.012;2024-01-30T20:11:37;9.40;99.90
20858;DHT22;10589;53.636;10.012;2024-01-30T20:14:02;9.40;99.90
20858;DHT22;10589;53.636;10.012;2024-01-30T20:16:41;9.30;99.90
20858;DHT22;10589;53.636;10.012;2024-01-30T20:19:08;9.40;99.90